Aérodrome :
LOGIN :

S'inscrire | Disclaimer

   EN    FR    IT 

 










Légende :    VFR   VFR Marginal   IFR   IFR Intensif   IFR Très Intensif
Visi : 
Plafond : 
>= 8 km
>= 3000ft
5 à 8 km
1000 à 3000 ft
1500m à 5 km
500 à 1000 ft
800 à 1500m
200 à 500 ft
< 800m
< 200 ft
Symboles :   Orages  Brouillard  Fortes neiges  Fortes précipitations  Vent > 20 kt
SIGMETs :   Divers  Orages  Givrage  Turbulence  Onde Orograph.  Cendres Volcan.






- Altitude de l'aérodrome : 510 ft


LJCE - Cerklje

DERNIER METAR :
  • 250100Z AUTO 09005KT 9999 NSC 20/15 Q1016

METARs EXPIRÉS :
  • 250030Z AUTO 11006KT 9999 NSC 21/14 Q1016
  • 250000Z AUTO 10006KT 9999 NSC 21/15 Q1016
  • 242330Z AUTO 08008KT 9999 NSC 21/14 Q1016
  • 242300Z AUTO 09004KT 9999 NSC 22/15 Q1016
  • 242230Z AUTO VRB02KT 9999 NSC 22/16 Q1016
  • 242200Z AUTO 19001KT 9999 NSC 22/17 Q1016
  • 242130Z AUTO VRB01KT 9999 NSC 21/18 Q1016
  • 242100Z AUTO 00000KT 9999 NSC 22/18 Q1016
  • 242030Z AUTO 17001KT 9999 NSC 22/18 Q1016

TAF TAF LJCE
Valide du 25 à 00h jusqu'au 25 à 09h UTC


242300Z 2500/2509 VRB02KT CAVOK
PROB30
TEMPO 2500/2504 SHRA SCT040TCU



MET'MAP, la Météo Aéronautique d'un coup d'oeil ! - Copyright ORBIFLY Décembre 2007 - Disclaimer

ORBIFLY MET'MAP TEAM :

Programmation & Développement : Alexandra Zaïnal
Sur une idée originale de : Baudouin d'Aumeries
Soutien technique & logistique : Manuel Goepfert
Assistance : Marc-Olivier Méhu




SOURCES & CREDITS :

   NOAA